Winchester, New Hampshire
Current Conditions -  °F | °C
As of 5:15 PM on Saturday 20 Dec 2014 (Local Time) from KEEN Reporting Station
Overcast Overcast  
Wind Chill: 32°   Ceiling: 3400
Heat Index: 32°   Visibility: 10mi
Dew Point: 18°   Wind: 3mph
Humidity: 55%   Direction: 50°NE
Pressure: 30.26"   Gusts: NA
Location:  42.77°N, 72.38°W
Report Text: KEEN 202215Z AUTO 05003KT 10SM OVC034 00/M08 A3026 RMK AO1
Loading
Personal Weather Stations






























Interactive Weather Map New forecast layout! Learn more

10-Day Weather Forecast

Advertisements
Track Severe Weather on mobile